Time;durP1;ratioP1;P1;durP2;ratioP2;P2;SDS_P1;SDS_P2;PMS_P1;PMS_P2;Temp;Humidity;BMP_temperature;BMP_pressure;BME280_temperature;BME280_humidity;BME280_pressure;Samples;Min_cycle;Max_cycle;Signal;HPM_P1;HPM_P2
2022/01/10 00:02:07;;;;;;;86.57;47.55;;;;;;;;;;4999405;28;20121;-70
2022/01/10 00:04:33;;;;;;;67.57;40.53;;;;;;;;;;4999357;28;20077;-68
2022/01/10 00:06:59;;;;;;;72.07;42.85;;;;;;;;;;4999700;28;20060;-68
2022/01/10 00:09:25;;;;;;;73.38;43.25;;;;;;;;;;4999453;28;20467;-68
2022/01/10 00:11:51;;;;;;;81.68;49.65;;;;;;;;;;4999417;28;20405;-69
2022/01/10 00:14:17;;;;;;;80.72;48.78;;;;;;;;;;4999339;28;20027;-70
2022/01/10 00:16:43;;;;;;;79.35;45.85;;;;;;;;;;4999601;28;20034;-73
2022/01/10 00:19:09;;;;;;;76.53;43.13;;;;;;;;;;4999285;28;20030;-71
2022/01/10 00:21:35;;;;;;;84.57;46.80;;;;;;;;;;4999363;28;20026;-73
2022/01/10 00:24:01;;;;;;;82.03;46.45;;;;;;;;;;4999443;28;20034;-71
2022/01/10 00:26:27;;;;;;;67.75;39.42;;;;;;;;;;4999171;28;20047;-72
2022/01/10 00:28:53;;;;;;;62.40;36.28;;;;;;;;;;4999002;28;20081;-77
2022/01/10 00:31:20;;;;;;;61.75;35.85;;;;;;;;;;4999306;28;20084;-72
2022/01/10 00:33:46;;;;;;;58.83;35.78;;;;;;;;;;4999444;28;20022;-72
2022/01/10 00:36:12;;;;;;;57.72;36.47;;;;;;;;;;4999208;28;20030;-71
2022/01/10 00:38:38;;;;;;;56.53;35.70;;;;;;;;;;4999297;28;20050;-71
2022/01/10 00:41:04;;;;;;;59.95;35.63;;;;;;;;;;4999159;28;20576;-69
2022/01/10 00:43:32;;;;;;;63.13;37.08;;;;;;;;;;4998996;28;20057;-72
2022/01/10 00:45:59;;;;;;;68.93;39.97;;;;;;;;;;4999124;28;20022;-70
2022/01/10 00:48:25;;;;;;;56.53;35.65;;;;;;;;;;4999018;28;20030;-69
2022/01/10 00:50:51;;;;;;;65.35;37.50;;;;;;;;;;4998558;28;20117;-72
2022/01/10 00:53:17;;;;;;;61.47;34.83;;;;;;;;;;4998494;28;20022;-70
2022/01/10 00:55:43;;;;;;;75.28;41.88;;;;;;;;;;4998043;28;20076;-70
2022/01/10 00:58:09;;;;;;;65.32;38.47;;;;;;;;;;4995178;28;20034;-68
2022/01/10 01:00:35;;;;;;;63.25;34.97;;;;;;;;;;4994645;28;20034;-70
2022/01/10 01:03:02;;;;;;;62.00;35.10;;;;;;;;;;4977497;28;20045;-71
2022/01/10 01:05:30;;;;;;;61.53;33.58;;;;;;;;;;4995205;28;20018;-70
2022/01/10 01:08:00;;;;;;;63.88;36.80;;;;;;;;;;4992050;28;20049;-70
2022/01/10 01:13:09;;;;;;;59.53;34.00;;;;;;;;;;4995127;28;20057;-70
2022/01/10 01:15:55;;;;;;;61.25;34.10;;;;;;;;;;4983164;28;20440;-71
2022/01/10 01:18:44;;;;;;;63.85;34.35;;;;;;;;;;4993082;28;20034;-70
2022/01/10 01:24:03;;;;;;;58.00;32.55;;;;;;;;;;4995752;28;20057;-77
2022/01/10 01:26:33;;;;;;;59.22;33.53;;;;;;;;;;4995685;28;20065;-73
2022/01/10 01:28:59;;;;;;;53.33;29.77;;;;;;;;;;4995607;28;20113;-74
2022/01/10 01:31:26;;;;;;;48.92;29.52;;;;;;;;;;4995711;28;20073;-71
2022/01/10 01:33:52;;;;;;;51.65;30.85;;;;;;;;;;4995524;28;20026;-72
2022/01/10 01:36:23;;;;;;;51.10;30.35;;;128.40;2252.80;;;;;;4995383;28;20389;-69
2022/01/10 01:38:50;;;;;;;49.40;27.73;;;128.40;2252.80;;;;;;4995045;28;20033;-70
2022/01/10 01:43:46;;;;;;;41.17;23.95;;;;;;;;;;4995026;28;20374;-70
2022/01/10 01:46:12;;;;;;;42.63;24.33;;;;;;;;;;4995302;28;20026;-71
2022/01/10 01:48:38;;;;;;;41.22;24.15;;;;;;;;;;4995038;28;20034;-69
2022/01/10 01:51:04;;;;;;;40.45;24.33;;;;;;;;;;4994856;28;20026;-72
2022/01/10 01:53:31;;;;;;;40.65;26.25;;;;;;;;;;4994687;28;20539;-72
2022/01/10 01:55:57;;;;;;;41.90;25.77;;;;;;;;;;4994943;28;20076;-72
2022/01/10 01:58:25;;;;;;;38.95;23.67;;;;;;;;;;4994701;28;20037;-68
2022/01/10 02:00:51;;;;;;;38.75;23.80;;;;;;;;;;4994574;28;20109;-74
2022/01/10 02:03:17;;;;;;;40.30;23.85;;;;;;;;;;4994229;28;20109;-74
2022/01/10 02:05:43;;;;;;;38.08;22.63;;;;;;;;;;4994199;28;20045;-74
2022/01/10 02:08:09;;;;;;;38.70;23.10;;;;;;;;;;4994432;28;20022;-72
2022/01/10 02:10:36;;;;;;;36.47;22.80;;;;;;;;;;4994229;28;20023;-70
2022/01/10 02:13:02;;;;;;;41.90;25.23;;;;;;;;;;4994369;28;20030;-70
2022/01/10 02:15:41;;;;;;;40.50;23.17;;;;;;;;;;4994386;28;20062;-71
2022/01/10 02:18:07;;;;;;;58.80;30.25;;;;;;;;;;4994033;28;20062;-71
2022/01/10 02:20:34;;;;;;;40.60;24.30;;;;;;;;;;4994430;28;20397;-71
2022/01/10 02:23:00;;;;;;;40.42;23.45;;;;;;;;;;4994010;28;20034;-72
2022/01/10 02:25:26;;;;;;;39.50;22.48;;;;;;;;;;4994773;28;20023;-75
2022/01/10 02:27:54;;;;;;;42.47;26.80;;;;;;;;;;4994270;28;20409;-76
2022/01/10 02:30:20;;;;;;;43.42;25.73;;;;;;;;;;4994541;28;20034;-73
2022/01/10 02:32:47;;;;;;;38.92;23.80;;;;;;;;;;4994549;28;20028;-68
2022/01/10 02:35:24;;;;;;;42.10;25.48;;;;;;;;;;4994540;28;20018;-67
2022/01/10 02:37:52;;;;;;;44.30;25.77;;;;;;;;;;4994289;28;20026;-70
2022/01/10 02:40:20;;;;;;;41.78;25.95;;;;;;;;;;4993864;28;20034;-71
2022/01/10 02:42:50;;;;;;;47.15;27.42;;;;;;;;;;4993658;28;20081;-72
2022/01/10 02:45:16;;;;;;;42.92;26.42;;;;;;;;;;4993781;28;20062;-72
2022/01/10 02:47:43;;;;;;;41.00;25.80;;;;;;;;;;4993995;28;20031;-74
2022/01/10 02:50:09;;;;;;;42.25;25.05;;;;;;;;;;4994034;28;20057;-72
2022/01/10 02:52:35;;;;;;;45.50;25.77;;;;;;;;;;4994082;28;20042;-66
2022/01/10 02:55:01;;;;;;;44.42;25.02;;;;;;;;;;4994109;28;20493;-70
2022/01/10 02:57:28;;;;;;;39.67;23.30;;;;;;;;;;4993890;28;20042;-72
2022/01/10 02:59:54;;;;;;;44.25;23.98;;;;;;;;;;4993871;28;20014;-69
2022/01/10 03:02:24;;;;;;;43.47;25.83;;;;;;;;;;4993387;28;20034;-68
2022/01/10 03:04:50;;;;;;;48.28;29.50;;;;;;;;;;4993419;28;20385;-72
2022/01/10 03:07:17;;;;;;;40.20;24.25;;;;;;;;;;4993305;28;20524;-69
2022/01/10 03:09:43;;;;;;;40.22;24.15;;;;;;;;;;4993230;28;20030;-72
2022/01/10 03:12:10;;;;;;;39.80;23.58;;;;;;;;;;4993173;28;20038;-71
2022/01/10 03:14:36;;;;;;;38.47;23.65;;;;;;;;;;4993252;28;20073;-72
2022/01/10 03:17:02;;;;;;;58.40;30.90;;;;;;;;;;4993091;28;20469;-73
2022/01/10 03:19:29;;;;;;;44.83;24.23;;;;;;;;;;4993333;28;20080;-73
2022/01/10 03:21:55;;;;;;;69.15;34.72;;;;;;;;;;4992757;28;20065;-71
2022/01/10 03:24:21;;;;;;;37.63;23.40;;;;;;;;;;4993563;28;20113;-78
2022/01/10 03:26:47;;;;;;;37.15;22.13;;;;;;;;;;4993547;28;20050;-78
2022/01/10 03:29:13;;;;;;;37.97;22.85;;;;;;;;;;4993772;28;20026;-78
2022/01/10 03:31:39;;;;;;;36.67;22.75;;;;;;;;;;4992906;28;20049;-75
2022/01/10 03:34:10;;;;;;;36.85;21.55;;;;;;;;;;4993398;28;20026;-73
2022/01/10 03:36:36;;;;;;;34.70;22.15;;;;;;;;;;4993701;28;20023;-70
2022/01/10 03:39:03;;;;;;;33.70;22.48;;;128.10;2252.80;;;;;;4993412;28;20021;-71
2022/01/10 03:41:28;;;;;;;34.88;21.75;;;128.10;2252.80;;;;;;4993433;28;20033;-73
2022/01/10 03:43:54;;;;;;;38.33;23.25;;;128.20;2252.80;;;;;;4993359;28;20042;-73
2022/01/10 03:46:20;;;;;;;58.10;33.90;;;128.20;2252.80;;;;;;4975068;28;20061;-74
2022/01/10 03:48:46;;;;;;;38.60;22.95;;;128.30;2252.80;;;;;;4993062;28;20103;-69
2022/01/10 03:51:11;;;;;;;31.80;20.00;;;128.40;2252.80;;;;;;4992729;28;20022;-69
2022/01/10 03:53:37;;;;;;;33.95;20.65;;;128.30;2252.80;;;;;;4992907;28;20026;-67
2022/01/10 03:56:03;;;;;;;32.63;20.65;;;128.20;2252.80;;;;;;4993245;28;20054;-72
2022/01/10 03:58:29;;;;;;;31.58;19.38;;;128.30;2252.80;;;;;;4993194;28;20062;-71
2022/01/10 04:00:55;;;;;;;32.35;20.27;;;;;;;;;;4992553;28;20499;-73
2022/01/10 04:03:22;;;;;;;31.50;20.35;;;;;;;;;;4992813;28;20496;-70
2022/01/10 04:05:48;;;;;;;37.00;21.77;;;;;;;;;;4992999;28;20061;-70
2022/01/10 04:08:14;;;;;;;36.17;21.77;;;;;;;;;;4993151;28;20080;-72
2022/01/10 04:10:41;;;;;;;36.13;22.98;;;;;;;;;;4993121;28;20030;-72
2022/01/10 04:13:07;;;;;;;33.35;23.15;;;;;;;;;;4975702;28;20054;-72
2022/01/10 04:15:33;;;;;;;40.17;25.15;;;;;;;;;;4992859;28;20074;-71
2022/01/10 04:18:01;;;;;;;36.28;23.83;;;;;;;;;;4992937;28;20081;-71
2022/01/10 04:20:27;;;;;;;47.35;27.75;;;;;;;;;;4992841;28;20062;-71
2022/01/10 04:22:54;;;;;;;38.67;25.75;;;;;;;;;;4993230;28;20057;-72
2022/01/10 04:25:20;;;;;;;39.72;24.27;;;;;;;;;;4992962;28;20023;-69
2022/01/10 04:27:46;;;;;;;38.30;22.60;;;;;;;;;;4992385;28;20112;-73
2022/01/10 04:30:13;;;;;;;36.22;22.38;;;;;;;;;;4992922;28;20050;-72
2022/01/10 04:32:42;;;;;;;41.13;25.42;;;;;;;;;;4993042;28;20061;-74
2022/01/10 04:35:08;;;;;;;39.25;23.80;;;;;;;;;;4996722;28;20077;-71
2022/01/10 04:37:34;;;;;;;40.72;24.42;;;;;;;;;;4996504;28;20117;-78
2022/01/10 04:40:00;;;;;;;33.45;23.30;;;;;;;;;;4997124;28;20062;-78
2022/01/10 04:42:26;;;;;;;35.95;24.20;;;;;;;;;;4996794;28;20034;-68
2022/01/10 04:44:52;;;;;;;32.58;23.88;;;128.40;2252.80;;;;;;4996403;28;20381;-72
2022/01/10 04:47:18;;;;;;;35.25;22.70;;;128.40;2252.80;;;;;;4996568;28;20026;-72
2022/01/10 04:50:24;;;;;;;36.40;23.60;;;128.40;2252.80;;;;;;4996047;28;20023;-69
2022/01/10 04:52:31;;;;;;;36.88;22.10;;;128.40;2252.80;;;;;;4995082;28;20030;-71
2022/01/10 04:54:58;;;;;;;36.95;22.23;;;128.40;2252.80;;;;;;4995404;28;20029;-74
2022/01/10 04:57:23;;;;;;;37.58;24.58;;;128.40;2252.80;;;;;;4996314;28;20064;-73
2022/01/10 04:59:49;;;;;;;45.50;27.90;;;128.30;2252.80;;;;;;4996135;28;20077;-72
2022/01/10 05:02:15;;;;;;;42.78;26.85;;;128.30;2252.80;;;;;;4996122;28;20084;-72
2022/01/10 05:04:42;;;;;;;61.55;38.30;;;;;;;;;;4995406;28;20049;-70
2022/01/10 05:07:08;;;;;;;47.17;29.75;;;;;;;;;;4995370;28;20097;-75
2022/01/10 05:09:34;;;;;;;58.22;35.22;;;;;;;;;;4994769;28;20081;-76
2022/01/10 05:12:00;;;;;;;62.20;40.83;;;;;;;;;;4995164;28;20030;-74
2022/01/10 05:14:27;;;;;;;61.80;37.55;;;;;;;;;;4995779;28;20404;-66
2022/01/10 05:16:53;;;;;;;67.32;41.92;;;;;;;;;;4996122;28;20121;-75
2022/01/10 05:19:19;;;;;;;67.10;41.80;;;103.10;2227.20;;;;;;4995946;28;20034;-73
2022/01/10 05:21:45;;;;;;;63.55;40.50;;;128.00;2252.80;;;;;;4995656;28;20500;-71
2022/01/10 05:24:11;;;;;;;61.85;38.75;;;128.20;2252.80;;;;;;4995701;28;20042;-73
2022/01/10 05:26:37;;;;;;;66.15;39.47;;;;;;;;;;4995436;28;20052;-71
2022/01/10 05:29:03;;;;;;;54.53;35.92;;;128.20;2252.80;;;;;;4995820;28;20509;-72
2022/01/10 05:31:33;;;;;;;58.60;37.15;;;128.40;2252.80;;;;;;4994743;28;20528;-71
2022/01/10 05:33:59;;;;;;;69.13;41.30;;;128.40;2252.80;;;;;;4995600;28;20036;-70
2022/01/10 05:36:25;;;;;;;60.08;40.55;;;128.40;2252.80;;;;;;4994117;28;20034;-71
2022/01/10 05:38:51;;;;;;;60.35;36.33;;;128.40;2252.80;;;;;;4995797;28;20026;-73
2022/01/10 05:41:17;;;;;;;53.40;34.60;;;128.40;2252.80;;;;;;4995391;28;20033;-71
2022/01/10 05:43:43;;;;;;;59.35;35.85;;;128.40;2252.80;;;;;;4994792;28;20120;-70
2022/01/10 05:46:12;;;;;;;66.18;38.53;;;128.40;2252.80;;;;;;4995170;28;20401;-71
2022/01/10 05:48:40;;;;;;;68.45;41.80;;;128.40;2252.80;;;;;;4995582;28;20105;-69
2022/01/10 05:51:06;;;;;;;63.03;40.65;;;128.40;2252.80;;;;;;4995150;28;20033;-71
2022/01/10 05:53:32;;;;;;;77.38;45.85;;;128.30;2252.80;;;;;;4995031;28;20031;-70
2022/01/10 05:55:57;;;;;;;76.07;47.85;;;128.30;2252.80;;;;;;4995221;28;20084;-70
2022/01/10 05:58:23;;;;;;;68.18;44.63;;;;;;;;;;4990586;28;20440;-71
2022/01/10 06:00:50;;;;;;;136.80;79.22;;;;;;;;;;4994476;28;20038;-70
2022/01/10 06:03:16;;;;;;;147.75;87.32;;;;;;;;;;4994794;28;20061;-71
2022/01/10 06:05:42;;;;;;;86.97;52.42;;;;;;;;;;4994006;28;20433;-70
2022/01/10 06:08:08;;;;;;;63.92;40.00;;;;;;;;;;4994939;28;20030;-70
2022/01/10 06:10:35;;;;;;;67.13;41.03;;;;;;;;;;4994842;28;20023;-71
2022/01/10 06:13:01;;;;;;;64.78;41.42;;;;;;;;;;4995092;28;20038;-70
2022/01/10 06:15:27;;;;;;;60.17;35.33;;;;;;;;;;4994767;28;20057;-71
2022/01/10 06:17:53;;;;;;;64.00;39.20;;;;;;;;;;4994579;28;20030;-66
2022/01/10 06:20:20;;;;;;;68.20;41.80;;;;;;;;;;4994565;28;20026;-72
2022/01/10 06:22:46;;;;;;;70.72;43.17;;;;;;;;;;4976689;28;20465;-71
2022/01/10 06:25:16;;;;;;;69.45;42.83;;;103.20;2227.20;;;;;;4994487;28;20414;-71
2022/01/10 06:27:42;;;;;;;68.85;41.83;;;128.00;2252.80;;;;;;4994500;28;20501;-71
2022/01/10 06:30:08;;;;;;;81.20;45.22;;;;;;;;;;4994639;28;20054;-71
2022/01/10 06:32:34;;;;;;;75.13;43.03;;;;;;;;;;4994588;28;20072;-72
2022/01/10 06:35:00;;;;;;;64.32;38.65;;;;;;;;;;4994440;28;20480;-72
2022/01/10 06:37:27;;;;;;;65.65;39.38;;;;;;;;;;4994284;28;20041;-66
2022/01/10 06:39:53;;;;;;;76.50;44.13;;;;;;;;;;4994259;28;20029;-71
2022/01/10 06:42:19;;;;;;;57.47;38.67;;;103.30;2227.20;;;;;;4994603;28;20030;-71
2022/01/10 06:44:45;;;;;;;88.45;52.40;;;103.20;2227.20;;;;;;4994748;28;20026;-68
2022/01/10 06:47:11;;;;;;;66.88;42.05;;;;;;;;;;4994168;28;20493;-71
2022/01/10 06:49:37;;;;;;;70.93;44.35;;;102.90;2227.20;;;;;;4994259;28;20037;-71
2022/01/10 06:52:04;;;;;;;73.95;43.10;;;103.30;2227.20;;;;;;4994174;28;20034;-70
2022/01/10 06:54:30;;;;;;;69.20;43.80;;;128.10;2252.80;;;;;;4994116;28;20025;-71
2022/01/10 06:56:58;;;;;;;68.93;43.45;;;128.10;2252.80;;;;;;4993305;28;20065;-71
2022/01/10 06:59:27;;;;;;;64.65;41.97;;;103.30;2227.20;;;;;;4994032;28;20026;-65
2022/01/10 07:01:55;;;;;;;69.80;45.10;;;103.20;2227.20;;;;;;4993735;28;20033;-72
2022/01/10 07:04:22;;;;;;;76.55;50.55;;;103.30;2227.20;;;;;;4993780;28;20041;-70
2022/01/10 07:06:48;;;;;;;64.97;42.35;;;;;;;;;;4993742;28;20488;-71
2022/01/10 07:09:14;;;;;;;63.78;42.50;;;;;;;;;;4993610;28;20081;-70
2022/01/10 07:11:40;;;;;;;67.55;44.08;;;128.00;2252.80;;;;;;4993730;28;20066;-70
2022/01/10 07:14:07;;;;;;;70.88;45.30;;;103.30;2227.20;;;;;;4993683;28;20068;-71
2022/01/10 07:16:34;;;;;;;71.93;43.00;;;;;;;;;;4993880;28;20101;-71
2022/01/10 07:19:01;;;;;;;69.47;44.65;;;;;;;;;;4993921;28;20022;-71
2022/01/10 07:21:27;;;;;;;73.90;46.25;;;103.20;2227.20;;;;;;4993548;28;20547;-71
2022/01/10 07:23:53;;;;;;;76.30;46.58;;;103.20;2227.20;;;;;;4993555;28;20042;-70
2022/01/10 07:26:19;;;;;;;63.78;41.08;;;103.30;2227.20;;;;;;4993716;28;20121;-71
2022/01/10 07:28:45;;;;;;;68.80;40.85;;;103.00;2227.20;;;;;;4993946;28;20074;-69
2022/01/10 07:31:11;;;;;;;71.95;45.78;;;103.10;2227.20;;;;;;4993398;28;20030;-66
2022/01/10 07:33:37;;;;;;;75.93;47.40;;;103.30;2227.20;;;;;;4993448;28;20084;-70
2022/01/10 07:36:04;;;;;;;69.78;44.92;;;128.00;2252.80;;;;;;4993525;28;20461;-71
2022/01/10 07:38:35;;;;;;;66.65;43.50;;;103.30;2227.20;;;;;;4993464;28;20106;-70
2022/01/10 07:41:06;;;;;;;82.72;52.72;;;103.30;2227.20;;;;;;4993775;28;20035;-71
2022/01/10 07:43:32;;;;;;;72.30;46.10;;;103.30;2227.20;;;;;;4993336;28;20034;-69
2022/01/10 07:45:59;;;;;;;47.90;32.10;;;103.30;2227.20;;;;;;4993332;28;20102;-71
2022/01/10 07:48:28;;;;;;;49.80;34.65;;;128.10;2252.80;;;;;;4993496;28;20031;-70
2022/01/10 07:50:54;;;;;;;55.03;37.53;;;103.30;2227.20;;;;;;4993143;28;20400;-70
2022/01/10 07:53:19;;;;;;;53.20;35.65;;;103.30;2227.20;;;;;;4993330;28;20022;-69
2022/01/10 07:55:45;;;;;;;50.22;34.30;;;103.30;2227.20;;;;;;4993531;28;20462;-71
2022/01/10 07:58:12;;;;;;;53.25;35.60;;;128.20;2252.80;;;;;;4993552;28;20085;-70
2022/01/10 08:00:37;;;;;;;61.38;37.53;;;128.20;2252.80;;;;;;4993266;28;20069;-71
2022/01/10 08:03:03;;;;;;;61.72;38.88;;;128.20;2252.80;;;;;;4993197;28;20497;-71
2022/01/10 08:05:29;;;;;;;54.55;37.28;;;128.10;2252.80;;;;;;4993158;28;20029;-70
2022/01/10 08:07:55;;;;;;;57.72;37.25;;;103.30;2227.20;;;;;;4995327;28;20026;-71
2022/01/10 08:10:21;;;;;;;70.22;44.92;;;;;;;;;;4997311;28;20105;-66
2022/01/10 08:12:47;;;;;;;68.55;45.75;;;;;;;;;;4997140;28;20397;-71
2022/01/10 08:15:13;;;;;;;68.03;45.03;;;103.00;2227.20;;;;;;4996994;28;20385;-71
2022/01/10 08:17:41;;;;;;;56.65;38.63;;;103.30;2227.20;;;;;;4996958;28;20030;-71
2022/01/10 08:20:07;;;;;;;59.53;40.80;;;103.00;2227.20;;;;;;4997007;28;20076;-70
2022/01/10 08:22:33;;;;;;;65.50;41.20;;;128.00;2252.80;;;;;;4996858;28;20146;-72
2022/01/10 08:24:59;;;;;;;67.03;43.03;;;128.30;2252.80;;;;;;4996910;28;20070;-71
2022/01/10 08:27:25;;;;;;;62.60;41.92;;;128.20;2252.80;;;;;;4996552;28;20051;-71
2022/01/10 08:29:51;;;;;;;75.63;46.30;;;;;;;;;;4996552;28;20500;-71
2022/01/10 08:32:18;;;;;;;79.15;49.63;;;128.10;2252.80;;;;;;4996415;28;20026;-64
2022/01/10 08:34:43;;;;;;;84.47;49.75;;;128.40;2252.80;;;;;;4996734;28;20030;-71
2022/01/10 08:37:10;;;;;;;92.82;57.53;;;128.40;2252.80;;;;;;4996529;28;20026;-71
2022/01/10 08:39:35;;;;;;;81.32;48.92;;;128.30;2252.80;;;;;;4996997;28;20030;-71
2022/01/10 08:42:05;;;;;;;79.68;48.30;;;128.50;2252.80;;;;;;4996442;28;20026;-70
2022/01/10 08:44:30;;;;;;;81.60;51.05;;;128.50;2252.80;;;;;;4996434;28;20034;-70
2022/01/10 08:46:56;;;;;;;70.95;47.65;;;;;;;;;;4996371;28;20033;-70
2022/01/10 08:49:23;;;;;;;69.95;45.17;;;;;;;;;;4996439;28;20077;-71
2022/01/10 08:51:54;;;;;;;85.13;53.42;;;128.50;2252.80;;;;;;4996416;28;20030;-68
2022/01/10 08:54:23;;;;;;;59.83;38.60;;;128.60;2252.80;;;;;;4996470;28;20026;-70
2022/01/10 08:56:49;;;;;;;54.00;35.03;;;128.90;2252.80;;;;;;4996504;28;20105;-70
2022/01/10 08:59:15;;;;;;;67.55;40.22;;;128.90;2252.80;;;;;;4996116;28;20042;-65
2022/01/10 09:01:46;;;;;;;70.00;44.22;;;128.90;2252.80;;;;;;4996244;28;20038;-70
2022/01/10 09:04:16;;;;;;;59.53;39.97;;;128.80;2252.80;;;;;;4996286;28;20039;-71
2022/01/10 09:06:48;;;;;;;50.55;34.90;;;;;;;;;;4996079;28;20102;-71
2022/01/10 09:09:15;;;;;;;59.67;38.97;;;;;;;;;;4996584;28;20065;-71
2022/01/10 09:11:43;;;;;;;66.78;41.97;;;;;;;;;;4996056;28;20101;-71
2022/01/10 09:14:10;;;;;;;64.35;44.13;;;;;;;;;;4995647;28;20033;-69
2022/01/10 09:16:37;;;;;;;90.55;57.00;;;153.60;2252.80;;;;;;4996017;28;20401;-71
2022/01/10 09:19:03;;;;;;;59.13;38.78;;;153.60;2252.80;;;;;;4994841;28;20089;-68
2022/01/10 09:21:29;;;;;;;67.25;39.40;;;128.80;2252.80;;;;;;4995624;28;20026;-71
2022/01/10 09:23:55;;;;;;;50.60;32.40;;;128.90;2252.80;;;;;;4995663;28;20464;-70
2022/01/10 09:26:21;;;;;;;49.80;30.77;;;128.90;2252.80;;;;;;4995577;28;20061;-70
2022/01/10 09:28:50;;;;;;;45.50;29.40;;;128.90;2252.80;;;;;;4995817;28;20031;-71
2022/01/10 09:31:16;;;;;;;30.67;20.30;;;128.80;2252.80;;;;;;4995701;28;20117;-71
2022/01/10 09:33:43;;;;;;;29.00;19.23;;;128.80;2252.80;;;;;;4995845;28;20483;-69
2022/01/10 09:36:09;;;;;;;28.58;17.90;;;128.80;2252.80;;;;;;4995711;28;20042;-71
2022/01/10 09:38:38;;;;;;;28.75;19.92;;;128.90;2252.80;;;;;;4995484;28;20034;-71
2022/01/10 09:41:06;;;;;;;63.35;36.20;;;128.90;2252.80;;;;;;4995446;28;20030;-70
2022/01/10 09:43:32;;;;;;;55.97;33.50;;;128.90;2252.80;;;;;;4995100;28;20041;-71
2022/01/10 09:45:58;;;;;;;51.60;31.55;;;128.90;2252.80;;;;;;4995306;28;20030;-71
2022/01/10 09:48:24;;;;;;;53.97;35.03;;;128.90;2252.80;;;;;;4995095;28;20038;-70
2022/01/10 09:50:50;;;;;;;44.38;32.20;;;128.60;2252.80;;;;;;4994899;28;20037;-72
2022/01/10 09:53:17;;;;;;;50.75;37.55;;;;;;;;;;4995328;28;20026;-71
2022/01/10 09:55:43;;;;;;;52.95;34.13;;;;;;;;;;4995127;28;20057;-71
2022/01/10 09:58:10;;;;;;;46.88;30.42;;;;;;;;;;4995164;28;20037;-71
2022/01/10 10:00:36;;;;;;;46.72;30.90;;;;;;;;;;4977038;28;20042;-72
2022/01/10 10:03:04;;;;;;;38.15;25.88;;;128.60;2252.80;;;;;;4994822;28;20038;-71
2022/01/10 10:05:30;;;;;;;49.25;33.13;;;128.40;2252.80;;;;;;4994798;28;20026;-71
2022/01/10 10:07:55;;;;;;;49.90;33.97;;;128.50;2252.80;;;;;;4995162;28;20027;-72
2022/01/10 10:10:21;;;;;;;49.60;30.08;;;128.60;2252.80;;;;;;4977425;28;20045;-72
2022/01/10 10:12:49;;;;;;;55.67;35.53;;;128.30;2252.80;;;;;;4994470;28;20113;-72
2022/01/10 10:15:19;;;;;;;57.38;36.38;;;128.40;2252.80;;;;;;4994697;28;20018;-70
2022/01/10 10:17:50;;;;;;;61.08;37.10;;;128.50;2252.80;;;;;;4994658;28;20080;-71
2022/01/10 10:20:23;;;;;;;68.28;40.92;;;128.10;2252.80;;;;;;4994637;28;20049;-71
2022/01/10 10:22:51;;;;;;;51.70;32.40;;;128.10;2252.80;;;;;;4994453;28;20034;-72
2022/01/10 10:25:19;;;;;;;73.20;42.63;;;128.50;2252.80;;;;;;4994453;28;20026;-67
2022/01/10 10:27:47;;;;;;;55.15;31.90;;;;;;;;;;4994287;28;20034;-66
2022/01/10 10:30:19;;;;;;;48.55;28.30;;;;;;;;;;4994233;28;20042;-69
2022/01/10 10:32:46;;;;;;;49.85;31.35;;;;;;;;;;4994355;28;20022;-64
2022/01/10 10:35:13;;;;;;;46.13;29.23;;;;;;;;;;4994317;28;20034;-67
2022/01/10 10:37:43;;;;;;;46.55;29.95;;;;;;;;;;4994160;28;20026;-70
2022/01/10 10:40:10;;;;;;;53.15;35.55;;;;;;;;;;4994054;28;20092;-70
2022/01/10 10:42:38;;;;;;;46.72;30.38;;;;;;;;;;4994030;28;20038;-70
2022/01/10 10:45:06;;;;;;;52.05;31.40;;;;;;;;;;4994335;28;20365;-71
2022/01/10 10:47:34;;;;;;;56.60;32.00;;;;;;;;;;4994034;28;20571;-63
2022/01/10 10:50:05;;;;;;;42.10;27.25;;;128.10;2252.80;;;;;;4993928;28;20473;-70
2022/01/10 10:52:33;;;;;;;62.75;37.88;;;103.30;2227.20;;;;;;4993900;28;20034;-67
2022/01/10 10:55:06;;;;;;;54.97;34.42;;;;;;;;;;4993619;28;20041;-70
2022/01/10 10:57:32;;;;;;;55.40;36.60;;;;;;;;;;4994107;28;20037;-70
2022/01/10 11:00:04;;;;;;;49.03;32.90;;;;;;;;;;4993852;28;20023;-70
2022/01/10 11:02:30;;;;;;;46.13;28.95;;;;;;;;;;4993894;28;20381;-70
2022/01/10 11:05:01;;;;;;;38.67;26.38;;;;;;;;;;4993880;28;20031;-70
2022/01/10 11:07:32;;;;;;;43.25;27.08;;;;;;;;;;4993812;28;20029;-70
2022/01/10 11:10:00;;;;;;;39.83;25.13;;;;;;;;;;4993485;28;20034;-63
2022/01/10 11:12:27;;;;;;;47.90;32.50;;;;;;;;;;4993758;28;20075;-69
2022/01/10 11:14:54;;;;;;;45.72;31.63;;;;;;;;;;4993521;28;20556;-73
2022/01/10 11:17:21;;;;;;;47.55;34.08;;;;;;;;;;4993496;28;20030;-73
2022/01/10 11:20:06;;;;;;;51.67;32.70;;;;;;;;;;4993552;28;20026;-72
2022/01/10 11:22:32;;;;;;;47.15;32.58;;;;;;;;;;4993456;28;20054;-71
2022/01/10 11:24:58;;;;;;;42.58;30.45;;;;;;;;;;4993466;28;20034;-67
2022/01/10 11:27:37;;;;;;;45.42;32.28;;;;;;;;;;4993212;28;20043;-70
2022/01/10 11:30:24;;;;;;;50.15;34.38;;;;;;;;;;4993113;28;20085;-70
2022/01/10 11:33:07;;;;;;;50.80;33.95;;;103.10;2227.20;;;;;;4993480;28;20032;-65
2022/01/10 11:35:45;;;;;;;42.67;28.40;;;128.00;2252.80;;;;;;4993321;28;20031;-71
2022/01/10 11:38:18;;;;;;;42.25;30.27;;;;;;;;;;4993198;28;20034;-67
2022/01/10 11:40:46;;;;;;;48.40;31.48;;;;;;;;;;4993495;28;20058;-71
2022/01/10 11:43:31;;;;;;;38.35;27.45;;;;;;;;;;4992315;28;20120;-72
2022/01/10 11:46:07;;;;;;;52.28;34.00;;;103.30;2227.20;;;;;;4993313;28;20033;-71
2022/01/10 11:48:50;;;;;;;41.88;28.13;;;;;;;;;;4993316;28;20109;-71
2022/01/10 11:51:17;;;;;;;65.43;39.88;;;;;;;;;;4993158;28;20490;-72
2022/01/10 11:53:46;;;;;;;51.30;31.27;;;128.00;2252.80;;;;;;4993080;28;20030;-66
2022/01/10 11:56:25;;;;;;;67.05;38.80;;;103.20;2227.20;;;;;;4993329;28;20022;-72
2022/01/10 11:59:08;;;;;;;35.30;23.83;;;;;;;;;;4993689;28;20061;-71
2022/01/10 12:01:35;;;;;;;49.92;29.90;;;;;;;;;;4992741;28;20086;-71
2022/01/10 12:04:02;;;;;;;39.28;24.73;;;;;;;;;;4992858;28;20113;-72
2022/01/10 12:06:28;;;;;;;50.65;30.52;;;;;;;;;;4993152;28;20358;-73
2022/01/10 12:08:55;;;;;;;43.90;27.00;;;;;;;;;;4993130;28;20034;-69
2022/01/10 12:11:25;;;;;;;44.13;28.15;;;;;;;;;;4993023;28;20083;-72
2022/01/10 12:13:58;;;;;;;41.85;27.17;;;;;;;;;;4992998;28;20061;-72
2022/01/10 12:16:26;;;;;;;49.28;30.58;;;;;;;;;;4992813;28;20030;-71
2022/01/10 12:18:53;;;;;;;42.20;28.45;;;;;;;;;;4992442;28;20033;-72
2022/01/10 12:21:19;;;;;;;40.45;26.90;;;;;;;;;;4992771;28;20057;-71
2022/01/10 12:23:48;;;;;;;49.78;32.33;;;;;;;;;;4992630;28;20092;-72
2022/01/10 12:26:15;;;;;;;46.88;31.55;;;;;;;;;;4992483;28;20085;-73
2022/01/10 12:28:44;;;;;;;52.38;33.30;;;;;;;;;;4992578;28;20041;-72
2022/01/10 12:31:10;;;;;;;65.63;40.03;;;;;;;;;;4975083;28;20444;-72
2022/01/10 12:33:36;;;;;;;62.05;41.10;;;;;;;;;;4992520;28;20054;-73
2022/01/10 12:36:05;;;;;;;54.95;39.10;;;;;;;;;;4992723;28;20397;-72
2022/01/10 12:38:31;;;;;;;58.83;41.53;;;;;;;;;;4992558;28;20076;-71
2022/01/10 12:40:57;;;;;;;112.55;62.15;;;;;;;;;;4992704;28;20018;-72
2022/01/10 12:43:23;;;;;;;137.52;74.35;;;;;;;;;;4992749;28;20034;-71
2022/01/10 12:45:50;;;;;;;74.32;45.85;;;;;;;;;;4992630;28;20026;-71
2022/01/10 12:48:16;;;;;;;63.70;39.60;;;;;;;;;;4974475;28;20034;-71
2022/01/10 12:50:45;;;;;;;60.33;38.30;;;;;;;;;;4992311;28;20021;-71
2022/01/10 12:53:11;;;;;;;73.43;45.25;;;;;;;;;;4992321;28;20030;-69
2022/01/10 12:55:37;;;;;;;61.80;41.65;;;;;;;;;;4995675;28;20026;-69
2022/01/10 12:58:07;;;;;;;72.45;47.03;;;;;;;;;;4995842;28;20116;-72
2022/01/10 13:00:33;;;;;;;62.03;37.65;;;103.00;2227.20;;;;;;4995905;28;20501;-69
2022/01/10 13:03:00;;;;;;;75.18;43.00;;;102.90;2227.20;;;;;;4995830;28;20037;-72
2022/01/10 13:05:27;;;;;;;60.00;38.88;;;;;;;;;;4996153;28;20507;-69
2022/01/10 13:07:55;;;;;;;61.17;39.83;;;;;;;;;;4995763;28;20048;-67
2022/01/10 13:10:24;;;;;;;68.32;40.47;;;;;;;;;;4995795;28;20026;-70
2022/01/10 13:13:01;;;;;;;72.95;42.55;;;;;;;;;;4995782;28;20112;-71
2022/01/10 13:15:39;;;;;;;55.78;34.50;;;102.40;2227.20;;;;;;4995614;28;20034;-72
2022/01/10 13:18:05;;;;;;;59.88;36.08;;;102.40;2227.20;;;;;;4995841;28;20026;-70
2022/01/10 13:20:34;;;;;;;77.15;45.83;;;102.50;2227.20;;;;;;4995547;28;20097;-72
2022/01/10 13:23:05;;;;;;;79.60;48.38;;;;;;;;;;4995194;28;20052;-69
2022/01/10 13:25:33;;;;;;;64.70;41.03;;;;;;;;;;4995511;28;20022;-69
2022/01/10 13:28:00;;;;;;;63.72;43.65;;;103.20;2227.20;;;;;;4995127;28;20481;-70
2022/01/10 13:30:26;;;;;;;58.25;37.45;;;103.30;2227.20;;;;;;4977862;28;20393;-71